Time;durP1;ratioP1;P1;durP2;ratioP2;P2;SDS_P1;SDS_P2;PMS_P1;PMS_P2;Temp;Humidity;BMP_temperature;BMP_pressure;BME280_temperature;BME280_humidity;BME280_pressure;Samples;Min_cycle;Max_cycle;Signal;HPM_P1;HPM_P2
2023/02/14 00:00:40;;;;;;;63.33;25.23;;;-2.00;99.90;;;;;;5069034;28;20071;-72
2023/02/14 00:03:06;;;;;;;65.65;26.10;;;-1.90;99.90;;;;;;5070203;28;20028;-71
2023/02/14 00:05:31;;;;;;;69.63;25.85;;;-2.00;99.90;;;;;;5071335;28;20406;-72
2023/02/14 00:07:57;;;;;;;60.95;25.25;;;-1.90;99.90;;;;;;5072596;28;20032;-73
2023/02/14 00:10:23;;;;;;;62.85;25.45;;;-2.00;99.90;;;;;;5071329;28;20063;-77
2023/02/14 00:12:48;;;;;;;56.40;24.55;;;-2.00;99.90;;;;;;5071725;28;20028;-71
2023/02/14 00:15:23;;;;;;;57.90;24.38;;;-2.00;99.90;;;;;;5071518;28;20032;-70
2023/02/14 00:17:51;;;;;;;62.25;25.63;;;-2.10;99.90;;;;;;5071873;28;20017;-71
2023/02/14 00:20:17;;;;;;;63.58;25.35;;;-2.20;99.90;;;;;;5071257;28;20039;-71
2023/02/14 00:22:42;;;;;;;66.13;26.77;;;-2.20;99.90;;;;;;5071041;28;20025;-72
2023/02/14 00:25:08;;;;;;;66.20;27.33;;;-2.30;99.90;;;;;;5065476;28;20457;-70
2023/02/14 00:27:34;;;;;;;68.18;26.50;;;-2.30;99.90;;;;;;5077552;28;20044;-70
2023/02/14 00:30:01;;;;;;;65.28;26.75;;;-2.20;99.90;;;;;;5091954;28;20476;-71
2023/02/14 00:32:28;;;;;;;68.18;26.33;;;-2.30;99.90;;;;;;5091733;28;20047;-71
2023/02/14 00:34:54;;;;;;;72.05;26.45;;;-2.30;99.90;;;;;;5087325;28;20024;-71
2023/02/14 00:37:20;;;;;;;63.15;26.08;;;-2.30;99.90;;;;;;5091451;28;20078;-71
2023/02/14 00:39:46;;;;;;;69.97;26.70;;;-2.20;99.90;;;;;;5090272;28;20060;-70
2023/02/14 00:42:13;;;;;;;66.47;26.42;;;-2.20;99.90;;;;;;5091740;28;20031;-70
2023/02/14 00:44:39;;;;;;;68.50;27.35;;;-2.20;99.90;;;;;;5090489;28;20461;-70
2023/02/14 00:47:04;;;;;;;66.43;26.48;;;-2.10;99.90;;;;;;5092308;28;20035;-70
2023/02/14 00:49:30;;;;;;;61.03;25.75;;;-2.10;99.90;;;;;;5090573;28;20161;-70
2023/02/14 00:51:55;;;;;;;64.65;26.05;;;-2.10;99.90;;;;;;5091438;28;20035;-70
2023/02/14 00:54:21;;;;;;;65.68;26.65;;;-2.10;99.90;;;;;;5091448;28;20530;-71
2023/02/14 00:56:47;;;;;;;63.72;25.83;;;-2.00;99.90;;;;;;5091437;28;20020;-71
2023/02/14 00:59:12;;;;;;;65.75;27.00;;;-2.00;99.90;;;;;;5104035;28;20465;-73
2023/02/14 01:01:38;;;;;;;66.90;27.40;;;-2.00;99.90;;;;;;5072855;28;20031;-70
2023/02/14 01:04:04;;;;;;;62.30;24.70;;;-2.10;99.90;;;;;;5091182;28;20032;-70
2023/02/14 01:06:30;;;;;;;55.88;24.77;;;-2.10;99.90;;;;;;5090929;28;20461;-69
2023/02/14 01:08:56;;;;;;;57.03;24.55;;;-2.20;99.90;;;;;;5087005;28;20056;-70
2023/02/14 01:11:23;;;;;;;67.13;25.60;;;-2.20;99.90;;;;;;5072946;28;20020;-71
2023/02/14 01:13:50;;;;;;;63.65;25.95;;;-2.30;99.90;;;;;;5090385;28;20047;-71
2023/02/14 01:16:22;;;;;;;65.88;24.77;;;-2.20;99.90;;;;;;5091401;28;20024;-71
2023/02/14 01:18:48;;;;;;;64.80;25.58;;;-2.20;99.90;;;;;;5090407;28;20024;-72
2023/02/14 01:21:25;;;;;;;60.03;24.60;;;-2.30;99.90;;;;;;5090715;28;20038;-71
2023/02/14 01:23:54;;;;;;;59.92;23.27;;;-2.30;99.90;;;;;;5090429;28;20024;-71
2023/02/14 01:26:21;;;;;;;69.00;27.10;;;-2.30;99.90;;;;;;5090750;28;20031;-71
2023/02/14 01:28:47;;;;;;;63.85;25.27;;;-2.30;99.90;;;;;;5089579;28;20083;-71
2023/02/14 01:31:19;;;;;;;59.28;25.00;;;-2.20;99.90;;;;;;5090651;28;20055;-72
2023/02/14 01:33:46;;;;;;;61.47;26.25;;;-2.20;99.90;;;;;;5089921;28;20476;-70
2023/02/14 01:36:15;;;;;;;66.43;26.48;;;-2.20;99.90;;;;;;5090399;28;20035;-71
2023/02/14 01:38:41;;;;;;;62.53;25.38;;;-2.20;99.90;;;;;;5089025;28;20020;-71
2023/02/14 01:41:06;;;;;;;64.80;24.60;;;-2.20;99.90;;;;;;5072427;28;20101;-71
2023/02/14 01:44:08;;;;;;;60.78;25.02;;;-2.20;99.90;;;;;;5085171;28;20039;-70
2023/02/14 01:46:35;;;;;;;67.13;24.98;;;-2.30;99.90;;;;;;5056055;28;20374;-70
2023/02/14 01:49:24;;;;;;;63.88;24.77;;;-2.30;99.90;;;;;;5090369;28;20042;-71
2023/02/14 01:51:53;;;;;;;57.53;23.15;;;-2.30;99.90;;;;;;5090724;28;20020;-70
2023/02/14 01:54:23;;;;;;;66.47;26.65;;;-2.30;99.90;;;;;;5090318;28;20028;-70
2023/02/14 01:56:52;;;;;;;69.22;26.60;;;-2.30;99.90;;;;;;5090963;28;20115;-70
2023/02/14 01:59:21;;;;;;;67.00;27.08;;;-2.30;99.90;;;;;;5090232;28;20085;-70
2023/02/14 02:01:49;;;;;;;78.78;28.95;;;-2.30;99.90;;;;;;5087828;28;20453;-71
2023/02/14 02:04:21;;;;;;;72.07;27.25;;;-2.30;99.90;;;;;;5084875;28;20039;-71
2023/02/14 02:06:56;;;;;;;59.67;25.25;;;-2.30;99.90;;;;;;5091088;28;20020;-70
2023/02/14 02:09:46;;;;;;;70.28;27.13;;;-2.30;99.90;;;;;;5089965;28;20031;-71
2023/02/14 02:12:12;;;;;;;56.28;23.27;;;-2.30;99.90;;;;;;5090766;28;20051;-70
2023/02/14 02:14:38;;;;;;;61.65;25.13;;;-2.40;99.90;;;;;;5089133;28;20440;-70
2023/02/14 02:17:13;;;;;;;58.17;23.98;;;-2.50;99.90;;;;;;5085902;28;20051;-70
2023/02/14 02:20:27;;;;;;;70.20;26.27;;;-2.50;99.90;;;;;;5089986;28;20020;-70
2023/02/14 02:23:11;;;;;;;81.57;28.15;;;-2.50;99.90;;;;;;5084928;28;20392;-70
2023/02/14 02:26:03;;;;;;;77.57;28.83;;;-2.50;99.90;;;;;;5080858;28;20022;-70
2023/02/14 02:29:06;;;;;;;69.30;27.30;;;-2.40;99.90;;;;;;5089094;28;20055;-70
2023/02/14 02:32:17;;;;;;;64.28;25.05;;;-2.40;99.90;;;;;;5076107;28;20032;-70
2023/02/14 02:35:18;;;;;;;73.75;27.38;;;-2.40;99.90;;;;;;5053450;28;20055;-72
2023/02/14 02:38:05;;;;;;;74.03;27.85;;;-2.40;99.90;;;;;;5050765;28;20793;-71
2023/02/14 02:40:49;;;;;;;66.63;26.00;;;-2.40;99.90;;;;;;5088937;28;20028;-71
2023/02/14 02:43:34;;;;;;;61.20;26.15;;;-2.40;99.90;;;;;;5090391;28;20028;-71
2023/02/14 02:49:10;;;;;;;66.13;25.67;;;-2.40;99.90;;;;;;5093666;28;20036;-71
2023/02/14 02:54:41;;;;;;;60.13;24.90;;;-2.50;99.90;;;;;;5092975;28;20496;-71
2023/02/14 02:57:14;;;;;;;68.90;26.30;;;-2.50;99.90;;;;;;5093764;28;20426;-71
2023/02/14 02:59:44;;;;;;;63.60;26.15;;;-2.50;99.90;;;;;;5092620;28;20436;-71
2023/02/14 03:02:30;;;;;;;61.42;24.48;;;-2.50;99.90;;;;;;5085384;28;20029;-71
2023/02/14 03:04:59;;;;;;;68.80;26.48;;;-2.50;99.90;;;;;;5091276;28;20036;-72
2023/02/14 03:07:33;;;;;;;70.63;27.10;;;-2.50;99.90;;;;;;5085014;28;20028;-76
2023/02/14 03:10:05;;;;;;;68.32;26.95;;;-2.50;99.90;;;;;;5093532;28;20303;-72
2023/02/14 03:12:33;;;;;;;76.00;28.05;;;-2.50;99.90;;;;;;5093104;28;20047;-72
2023/02/14 03:15:20;;;;;;;77.00;28.20;;;-2.60;99.90;;;;;;5093700;28;20425;-72
2023/02/14 03:21:07;;;;;;;71.32;26.70;;;-2.60;99.90;;;;;;5091857;28;20112;-70
2023/02/14 03:23:39;;;;;;;75.10;27.70;;;-2.50;99.90;;;;;;5069567;28;20039;-70
2023/02/14 03:26:31;;;;;;;81.18;30.58;;;-2.50;99.90;;;;;;5088049;28;20073;-70
2023/02/14 03:28:59;;;;;;;72.15;28.05;;;-2.50;99.90;;;;;;5089632;28;20534;-70
2023/02/14 03:31:33;;;;;;;78.07;29.20;;;-2.50;99.90;;;;;;5092915;28;20073;-77
2023/02/14 03:34:21;;;;;;;77.22;29.30;;;-2.50;99.90;;;;;;5092923;28;20028;-71
2023/02/14 03:37:13;;;;;;;75.05;28.60;;;-2.40;99.90;;;;;;5093190;28;20024;-70
2023/02/14 03:39:44;;;;;;;70.95;26.60;;;-2.50;99.90;;;;;;5075057;28;20090;-70
2023/02/14 03:42:23;;;;;;;66.13;27.08;;;-2.50;99.90;;;;;;5090678;28;20055;-71
2023/02/14 03:44:52;;;;;;;77.80;27.88;;;-2.60;99.90;;;;;;5092358;28;20024;-70
2023/02/14 03:47:22;;;;;;;81.25;28.20;;;-2.60;99.90;;;;;;5092512;28;20439;-70
2023/02/14 03:49:55;;;;;;;88.72;29.58;;;-2.60;99.90;;;;;;5092810;28;20076;-70
2023/02/14 03:52:23;;;;;;;88.53;30.50;;;-2.70;99.90;;;;;;5093448;28;20024;-70
2023/02/14 03:54:51;;;;;;;79.95;30.25;;;-2.70;99.90;;;;;;5092174;28;20108;-70
2023/02/14 03:57:46;;;;;;;75.82;29.17;;;-2.70;99.90;;;;;;5092703;28;20028;-70
2023/02/14 04:00:13;;;;;;;74.60;27.33;;;-2.70;99.90;;;;;;5087527;28;20103;-69
2023/02/14 04:02:45;;;;;;;69.50;25.40;;;-2.70;99.90;;;;;;5079830;28;20029;-69
2023/02/14 04:05:23;;;;;;;77.20;28.90;;;-2.70;99.90;;;;;;5091763;28;20043;-69
2023/02/14 04:07:51;;;;;;;85.22;30.23;;;-2.70;99.90;;;;;;5092479;28;20020;-70
2023/02/14 04:10:18;;;;;;;76.03;28.08;;;-2.80;99.90;;;;;;5092360;28;20483;-69
2023/02/14 04:12:44;;;;;;;71.45;28.45;;;-2.80;99.90;;;;;;5091868;28;20023;-70
2023/02/14 04:15:10;;;;;;;76.55;29.52;;;-2.80;99.90;;;;;;5092004;28;20027;-72
2023/02/14 04:20:20;;;;;;;76.43;29.60;;;-2.80;99.90;;;;;;5092238;28;20192;-71
2023/02/14 04:22:46;;;;;;;74.20;27.60;;;-2.80;99.90;;;;;;5091711;28;20150;-70
2023/02/14 04:25:12;;;;;;;83.28;29.58;;;-2.80;99.90;;;;;;5090725;28;20381;-70
2023/02/14 04:27:38;;;;;;;90.28;32.28;;;-2.90;99.90;;;;;;5091007;28;20059;-70
2023/02/14 04:30:04;;;;;;;85.95;29.63;;;-2.80;99.90;;;;;;5091498;28;20132;-70
2023/02/14 04:32:30;;;;;;;89.72;31.45;;;-2.80;99.90;;;;;;5090897;28;20024;-71
2023/02/14 04:34:55;;;;;;;77.13;28.42;;;-2.80;99.90;;;;;;5087815;28;20423;-70
2023/02/14 04:37:21;;;;;;;88.85;32.67;;;-2.80;99.90;;;;;;5092412;28;20031;-70
2023/02/14 04:39:47;;;;;;;89.10;30.60;;;-2.80;99.90;;;;;;5091178;28;20032;-69
2023/02/14 04:42:12;;;;;;;88.47;31.60;;;-2.80;99.90;;;;;;5087779;28;20465;-70
2023/02/14 04:44:38;;;;;;;82.07;29.30;;;-2.80;99.90;;;;;;5084236;28;20028;-69
2023/02/14 04:47:04;;;;;;;81.13;30.77;;;-2.80;99.90;;;;;;5091987;28;20028;-70
2023/02/14 04:49:30;;;;;;;73.22;26.83;;;-2.80;99.90;;;;;;5090679;28;20107;-70
2023/02/14 04:51:55;;;;;;;85.63;30.70;;;-2.90;99.90;;;;;;5091807;28;20107;-71
2023/02/14 04:54:21;;;;;;;83.50;29.45;;;-2.90;99.90;;;;;;5072777;28;20074;-70
2023/02/14 04:56:47;;;;;;;88.97;32.05;;;-2.90;99.90;;;;;;5090914;28;20097;-70
2023/02/14 04:59:13;;;;;;;91.10;30.92;;;-3.00;99.90;;;;;;5082322;28;20103;-72
2023/02/14 05:01:39;;;;;;;86.55;31.05;;;-2.90;99.90;;;;;;5078874;28;20457;-70
2023/02/14 05:04:05;;;;;;;86.75;33.13;;;-3.00;99.90;;;;;;5090820;28;20032;-69
2023/02/14 05:06:31;;;;;;;98.05;32.33;;;-3.00;99.90;;;;;;5090113;28;20101;-69
2023/02/14 05:08:57;;;;;;;90.38;32.25;;;-3.00;99.90;;;;;;5086896;28;20035;-69
2023/02/14 05:11:23;;;;;;;96.93;33.00;;;-2.90;99.90;;;;;;5090494;28;20059;-73
2023/02/14 05:13:49;;;;;;;85.47;30.02;;;-2.90;99.90;;;;;;5090645;28;20056;-69
2023/02/14 05:16:15;;;;;;;88.63;31.77;;;-2.90;99.90;;;;;;5091411;28;20031;-69
2023/02/14 05:18:40;;;;;;;85.05;32.65;;;-2.90;99.90;;;;;;5090217;28;20024;-70
2023/02/14 05:21:06;;;;;;;79.88;29.30;;;-2.90;99.90;;;;;;5087539;28;20032;-68
2023/02/14 05:23:32;;;;;;;82.00;30.90;;;-3.00;99.90;;;;;;5089163;28;20031;-69
2023/02/14 05:25:57;;;;;;;93.30;31.27;;;-3.00;99.90;;;;;;5070603;28;20031;-70
2023/02/14 05:28:23;;;;;;;88.50;31.80;;;-2.90;99.90;;;;;;5090473;28;20409;-73
2023/02/14 05:30:50;;;;;;;89.07;32.78;;;-2.80;99.90;;;;;;5090606;28;20039;-70
2023/02/14 05:33:15;;;;;;;79.68;30.02;;;-2.90;99.90;;;;;;5091298;28;20020;-71
2023/02/14 05:35:41;;;;;;;82.93;31.13;;;-2.90;99.90;;;;;;5089888;28;20024;-71
2023/02/14 05:38:06;;;;;;;92.10;33.22;;;-3.00;99.90;;;;;;5085413;28;20362;-70
2023/02/14 05:40:32;;;;;;;95.03;32.28;;;-3.00;99.90;;;;;;5086286;28;20035;-70
2023/02/14 05:42:58;;;;;;;86.18;30.60;;;-3.00;99.90;;;;;;5087733;28;20094;-73
2023/02/14 05:45:23;;;;;;;84.82;30.95;;;-3.10;99.90;;;;;;5093720;28;20510;-74
2023/02/14 05:47:49;;;;;;;89.13;32.83;;;-3.00;99.90;;;;;;5090392;28;20028;-70
2023/02/14 05:50:15;;;;;;;96.35;34.72;;;-3.00;99.90;;;;;;5090041;28;20096;-71
2023/02/14 05:52:41;;;;;;;77.82;29.05;;;-3.00;99.90;;;;;;5090507;28;20028;-70
2023/02/14 05:55:07;;;;;;;87.57;31.65;;;-3.00;99.90;;;;;;5090116;28;20453;-71
2023/02/14 05:57:33;;;;;;;83.93;30.50;;;-3.10;99.90;;;;;;5089611;28;20016;-74
2023/02/14 05:59:58;;;;;;;87.80;30.08;;;-3.10;99.90;;;;;;5090346;28;20065;-71
2023/02/14 06:02:24;;;;;;;83.68;30.75;;;-3.20;99.90;;;;;;5072478;28;20461;-82
2023/02/14 06:04:50;;;;;;;92.78;31.42;;;-3.10;99.90;;;;;;5089989;28;20107;-71
2023/02/14 06:07:16;;;;;;;80.78;29.90;;;-3.20;99.90;;;;;;5090774;28;20024;-69
2023/02/14 06:09:41;;;;;;;93.95;32.75;;;-3.20;99.90;;;;;;5089593;28;20024;-71
2023/02/14 06:12:07;;;;;;;96.75;33.67;;;-3.30;99.90;;;;;;5090724;28;20099;-71
2023/02/14 06:14:33;;;;;;;98.13;33.30;;;-3.30;99.90;;;;;;5088527;28;20119;-70
2023/02/14 06:16:58;;;;;;;89.88;31.60;;;-3.20;99.90;;;;;;5087055;28;20032;-70
2023/02/14 06:19:24;;;;;;;95.32;32.13;;;-3.20;99.90;;;;;;5071342;28;20100;-73
2023/02/14 06:21:49;;;;;;;101.05;33.28;;;-3.20;99.90;;;;;;5092486;28;20031;-70
2023/02/14 06:24:15;;;;;;;115.15;35.92;;;-3.20;99.90;;;;;;5092602;28;20048;-69
2023/02/14 06:26:41;;;;;;;103.13;34.13;;;-3.10;99.90;;;;;;5083478;28;20103;-70
2023/02/14 06:29:06;;;;;;;101.65;33.92;;;-3.10;99.90;;;;;;5090963;28;20507;-71
2023/02/14 06:31:32;;;;;;;93.15;31.05;;;-3.10;99.90;;;;;;5093470;28;20435;-72
2023/02/14 06:33:57;;;;;;;96.68;32.20;;;-3.10;99.90;;;;;;5093425;28;20035;-71
2023/02/14 06:36:23;;;;;;;98.88;34.08;;;-3.10;99.90;;;;;;5093879;28;20039;-73
2023/02/14 06:38:49;;;;;;;101.10;35.72;;;-3.10;99.90;;;;;;5093394;28;20074;-70
2023/02/14 06:41:16;;;;;;;97.65;33.22;;;-3.10;99.90;;;;;;5093398;28;20393;-70
2023/02/14 06:43:47;;;;;;;112.40;36.28;;;-3.10;99.90;;;;;;5093436;28;20081;-70
2023/02/14 06:46:13;;;;;;;112.25;36.13;;;-3.10;99.90;;;;;;5094719;28;20415;-71
2023/02/14 06:48:39;;;;;;;109.03;35.88;;;-3.00;99.90;;;;;;5092010;28;20028;-69
2023/02/14 06:51:05;;;;;;;97.93;33.88;;;-2.90;99.90;;;;;;5091423;28;20028;-69
2023/02/14 06:53:30;;;;;;;97.88;33.67;;;-2.90;99.90;;;;;;5079527;28;20396;-70
2023/02/14 06:55:56;;;;;;;109.07;35.80;;;-2.90;99.90;;;;;;5075718;28;20461;-70
2023/02/14 06:58:22;;;;;;;103.35;34.78;;;-2.80;99.90;;;;;;5093742;28;20047;-71
2023/02/14 07:00:47;;;;;;;109.40;37.75;;;-2.80;99.90;;;;;;5092596;28;20848;-69
2023/02/14 07:03:14;;;;;;;92.55;34.10;;;-2.80;99.90;;;;;;5093840;28;20028;-68
2023/02/14 07:05:39;;;;;;;98.95;35.63;;;-2.80;99.90;;;;;;5092238;28;20023;-69
2023/02/14 07:08:06;;;;;;;111.20;36.17;;;-2.80;99.90;;;;;;5093234;28;20377;-69
2023/02/14 07:10:33;;;;;;;107.82;35.55;;;-2.80;99.90;;;;;;5074768;28;20085;-69
2023/02/14 07:12:59;;;;;;;109.15;37.03;;;-2.70;99.90;;;;;;5087086;28;20029;-68
2023/02/14 07:15:25;;;;;;;109.63;37.63;;;-2.60;99.90;;;;;;5083258;28;20091;-72
2023/02/14 07:17:51;;;;;;;102.90;35.55;;;-2.50;99.90;;;;;;5093552;28;20568;-69
2023/02/14 07:20:17;;;;;;;107.43;36.90;;;-2.50;99.90;;;;;;5092694;28;20107;-68
2023/02/14 07:22:43;;;;;;;104.32;34.75;;;-2.50;99.90;;;;;;5092343;28;20127;-67
2023/02/14 07:25:09;;;;;;;111.60;38.40;;;-2.50;99.90;;;;;;5091759;28;20157;-67
2023/02/14 07:27:35;;;;;;;113.00;37.88;;;-2.50;99.90;;;;;;5092504;28;20044;-67
2023/02/14 07:30:01;;;;;;;106.40;35.53;;;-2.50;99.90;;;;;;5091313;28;20034;-67
2023/02/14 07:32:26;;;;;;;100.93;36.40;;;-2.40;99.90;;;;;;5090872;28;20035;-69
2023/02/14 07:34:58;;;;;;;107.93;35.75;;;-2.40;99.90;;;;;;5092549;28;20395;-68
2023/02/14 07:37:24;;;;;;;101.70;35.25;;;-2.40;99.90;;;;;;5105172;28;20020;-69
2023/02/14 07:39:49;;;;;;;104.90;36.25;;;-2.40;99.90;;;;;;5091936;28;20055;-68
2023/02/14 07:42:15;;;;;;;109.55;36.58;;;-2.40;99.90;;;;;;5090316;28;20040;-67
2023/02/14 07:44:41;;;;;;;105.00;36.45;;;-2.40;99.90;;;;;;5091682;28;20024;-67
2023/02/14 07:47:08;;;;;;;106.18;36.33;;;-2.30;99.90;;;;;;5084646;28;20024;-67
2023/02/14 07:49:34;;;;;;;107.88;37.72;;;-2.20;99.90;;;;;;5091581;28;20024;-67
2023/02/14 07:51:59;;;;;;;93.00;35.50;;;-2.20;99.90;;;;;;5094639;28;20105;-66
2023/02/14 07:54:25;;;;;;;109.25;37.53;;;-2.00;99.90;;;;;;5092099;28;20016;-68
2023/02/14 07:56:51;;;;;;;112.95;38.00;;;-2.00;99.90;;;;;;5101466;28;20095;-67
2023/02/14 07:59:16;;;;;;;137.57;41.35;;;-1.90;99.90;;;;;;5091737;28;20108;-67
2023/02/14 08:01:42;;;;;;;107.93;36.85;;;-1.80;99.90;;;;;;5091871;28;20784;-67
2023/02/14 08:04:08;;;;;;;120.10;36.75;;;-1.70;99.90;;;;;;5092204;28;20032;-66
2023/02/14 08:06:34;;;;;;;125.18;40.60;;;-1.60;99.90;;;;;;5082756;28;20016;-66
2023/02/14 08:09:00;;;;;;;107.82;37.58;;;-1.50;99.90;;;;;;5088805;28;20515;-67
2023/02/14 08:14:10;;;;;;;96.65;37.22;;;-1.30;99.90;;;;;;5091137;28;20027;-68
2023/02/14 08:16:37;;;;;;;93.30;36.13;;;-1.20;99.90;;;;;;5091075;28;20384;-68
2023/02/14 08:19:03;;;;;;;88.30;34.58;;;-1.10;99.90;;;;;;5091693;28;20020;-67
2023/02/14 08:21:29;;;;;;;89.28;35.85;;;-1.00;99.90;;;;;;5091700;28;20042;-67
2023/02/14 08:23:55;;;;;;;80.32;34.03;;;-0.90;99.90;;;;;;5086891;28;20457;-67
2023/02/14 08:26:20;;;;;;;82.75;35.40;;;-0.80;99.90;;;;;;5092417;28;20036;-67
2023/02/14 08:28:46;;;;;;;79.03;34.10;;;-0.70;99.90;;;;;;5090369;28;20055;-67
2023/02/14 08:31:11;;;;;;;66.30;31.90;;;-0.60;99.90;;;;;;5073110;28;20032;-67
2023/02/14 08:33:37;;;;;;;59.65;30.17;;;-0.50;99.90;;;;;;5090467;28;20024;-67
2023/02/14 08:36:03;;;;;;;61.10;29.30;;;-0.40;99.90;;;;;;5091806;28;20418;-67
2023/02/14 08:38:29;;;;;;;64.68;29.75;;;-0.30;99.90;;;;;;5090345;28;20024;-68
2023/02/14 08:41:00;;;;;;;61.80;29.50;;;-0.20;99.90;;;;;;5092157;28;20334;-67
2023/02/14 08:43:26;;;;;;;61.05;29.27;;;-0.10;99.90;;;;;;5084510;28;20122;-68
2023/02/14 08:45:52;;;;;;;55.40;28.10;;;0.00;99.90;;;;;;5091287;28;20020;-67
2023/02/14 08:48:18;;;;;;;58.90;28.85;;;0.20;99.90;;;;;;5084560;28;20032;-67
2023/02/14 08:50:43;;;;;;;55.40;28.42;;;0.30;99.90;;;;;;5090936;28;20503;-67
2023/02/14 08:53:11;;;;;;;55.40;28.92;;;0.40;99.90;;;;;;5091474;28;20024;-67
2023/02/14 08:55:38;;;;;;;48.50;26.08;;;;;;;;;;5090296;28;20111;-67
2023/02/14 08:58:04;;;;;;;56.00;27.40;;;;;;;;;;5091303;28;20078;-67
2023/02/14 09:00:31;;;;;;;49.80;26.20;;;;;;;;;;5090210;28;20020;-67
2023/02/14 09:02:57;;;;;;;47.28;26.27;;;1.00;99.90;;;;;;5091944;28;20035;-67
2023/02/14 09:05:23;;;;;;;47.53;26.42;;;1.10;99.90;;;;;;5086871;28;20020;-69
2023/02/14 09:07:49;;;;;;;49.00;25.65;;;1.20;99.90;;;;;;5092122;28;20016;-67
2023/02/14 09:10:17;;;;;;;50.97;25.80;;;1.30;99.90;;;;;;5090948;28;20046;-67
2023/02/14 09:12:43;;;;;;;51.45;26.52;;;1.40;99.90;;;;;;5090902;28;20028;-68
2023/02/14 09:15:10;;;;;;;51.78;26.65;;;1.50;99.90;;;;;;5091006;28;20460;-67
2023/02/14 09:17:37;;;;;;;49.45;26.85;;;1.50;99.90;;;;;;5090356;28;20027;-67
2023/02/14 09:20:05;;;;;;;47.05;25.23;;;1.60;99.90;;;;;;5090946;28;20028;-67
2023/02/14 09:22:32;;;;;;;45.00;24.50;;;1.70;99.90;;;;;;5093507;28;20115;-67
2023/02/14 09:24:58;;;;;;;41.45;23.85;;;1.90;99.90;;;;;;5087285;28;20060;-66
2023/02/14 09:27:23;;;;;;;47.85;24.70;;;1.90;99.90;;;;;;5073125;28;20453;-68
2023/02/14 09:29:49;;;;;;;46.28;25.33;;;2.00;99.90;;;;;;5069884;28;20020;-67
2023/02/14 09:32:15;;;;;;;42.35;23.92;;;2.10;99.90;;;;;;5071057;28;20032;-66
2023/02/14 09:40:14;;;;;;;43.67;23.52;;;2.50;99.90;;;;;;5059882;28;20036;-66
2023/02/14 09:42:51;;;;;;;44.50;23.92;;;2.60;99.90;;;;;;5070472;28;20056;-66
2023/02/14 09:45:22;;;;;;;42.92;24.02;;;;;;;;;;5052300;28;20055;-67
2023/02/14 09:47:50;;;;;;;41.17;22.77;;;;;;;;;;5066467;28;20062;-68
2023/02/14 09:50:29;;;;;;;39.70;22.45;;;;;;;;;;5070466;28;20481;-66
2023/02/14 09:52:56;;;;;;;45.33;23.15;;;;;;;;;;5070713;28;20043;-66
2023/02/14 09:55:23;;;;;;;37.85;22.30;;;;;;;;;;5070842;28;20416;-66
2023/02/14 09:58:08;;;;;;;44.92;22.63;;;;;;;;;;5076570;28;20012;-66
2023/02/14 10:00:40;;;;;;;36.75;21.70;;;;;;;;;;5076067;28;20564;-66
2023/02/14 10:03:06;;;;;;;39.50;21.65;;;;;;;;;;5077039;28;20031;-66
2023/02/14 10:05:35;;;;;;;37.92;21.58;;;;;;;;;;5076383;28;20020;-67
2023/02/14 10:08:18;;;;;;;39.85;21.02;;;;;;;;;;5077411;28;20089;-67
2023/02/14 10:10:47;;;;;;;40.33;21.10;;;;;;;;;;5076330;28;20131;-67
2023/02/14 10:13:13;;;;;;;38.13;21.17;;;;;;;;;;5073023;28;20017;-66
2023/02/14 10:15:42;;;;;;;34.60;20.75;;;;;;;;;;5076139;28;20074;-67
2023/02/14 10:18:20;;;;;;;36.42;20.95;;;;;;;;;;5077025;28;20025;-68
2023/02/14 10:20:51;;;;;;;36.53;21.60;;;;;;;;;;5075804;28;20075;-68
2023/02/14 10:23:17;;;;;;;36.92;20.38;;;;;;;;;;5082090;28;20046;-67
2023/02/14 10:25:52;;;;;;;33.80;19.95;;;4.50;99.90;;;;;;5075887;28;20021;-67
2023/02/14 10:28:29;;;;;;;32.92;20.20;;;4.60;99.90;;;;;;5076477;28;20048;-67
2023/02/14 10:31:15;;;;;;;32.70;19.60;;;4.70;99.90;;;;;;5077165;28;20119;-67
2023/02/14 10:33:44;;;;;;;31.42;18.75;;;4.80;99.90;;;;;;5069152;28;20016;-67
2023/02/14 10:36:26;;;;;;;33.53;18.52;;;4.90;99.90;;;;;;5076776;28;20388;-67
2023/02/14 10:39:06;;;;;;;32.25;20.00;;;5.00;99.90;;;;;;5076280;28;20024;-68
2023/02/14 10:41:38;;;;;;;33.15;20.33;;;5.10;99.90;;;;;;5070240;28;20031;-67
2023/02/14 10:44:24;;;;;;;32.28;18.90;;;5.20;99.90;;;;;;5076445;28;20107;-67
2023/02/14 10:47:02;;;;;;;34.90;18.95;;;5.30;99.90;;;;;;5075552;28;20021;-67
2023/02/14 10:49:34;;;;;;;27.83;18.30;;;5.40;99.90;;;;;;5066134;28;20016;-67
2023/02/14 10:52:19;;;;;;;32.05;19.30;;;5.40;99.90;;;;;;5076940;28;20036;-66
2023/02/14 10:54:56;;;;;;;32.25;19.05;;;5.60;99.90;;;;;;5075401;28;20093;-67
2023/02/14 10:57:30;;;;;;;31.92;18.90;;;;;;;;;;5076257;28;20012;-66
2023/02/14 11:00:23;;;;;;;32.42;18.40;;;;;;;;;;5075989;28;20016;-67
2023/02/14 11:02:51;;;;;;;30.55;19.60;;;;;;;;;;5071887;28;20052;-67
2023/02/14 11:05:26;;;;;;;32.33;17.70;;;;;;;;;;5071202;28;20029;-67
2023/02/14 11:07:57;;;;;;;30.92;17.42;;;;;;;;;;5074957;28;20027;-67
2023/02/14 11:10:26;;;;;;;30.73;19.17;;;;;;;;;;5073051;28;20036;-67
2023/02/14 11:12:58;;;;;;;32.35;18.50;;;;;;;;;;5073288;28;20032;-67
2023/02/14 11:15:35;;;;;;;28.27;17.50;;;;;;;;;;5072371;28;20082;-68
2023/02/14 11:18:34;;;;;;;27.88;17.75;;;;;;;;;;5054032;28;20440;-67
2023/02/14 11:21:03;;;;;;;30.07;19.40;;;;;;;;;;5068064;28;20045;-68
2023/02/14 11:23:45;;;;;;;28.63;18.43;;;;;;;;;;5070133;28;20103;-68
2023/02/14 11:26:16;;;;;;;31.52;18.60;;;;;;;;;;5072442;28;20024;-67
2023/02/14 11:28:51;;;;;;;31.50;18.25;;;;;;;;;;5087757;28;20049;-66
2023/02/14 11:31:24;;;;;;;34.88;18.83;;;;;;;;;;5093318;28;20049;-66
2023/02/14 11:33:50;;;;;;;29.85;19.25;;;;;;;;;;5093276;28;20103;-68
2023/02/14 11:36:16;;;;;;;29.85;17.48;;;;;;;;;;5092323;28;20052;-67
2023/02/14 11:38:44;;;;;;;33.45;19.27;;;;;;;;;;5091047;28;20020;-67
2023/02/14 11:41:12;;;;;;;27.52;18.42;;;;;;;;;;5092850;28;20060;-66
2023/02/14 11:43:39;;;;;;;34.88;20.17;;;;;;;;;;5091926;28;20048;-67
2023/02/14 11:46:29;;;;;;;27.52;18.48;;;;;;;;;;5080045;28;20499;-67
2023/02/14 11:48:55;;;;;;;29.90;16.85;;;;;;;;;;5081236;28;20094;-66
2023/02/14 11:51:26;;;;;;;30.42;17.35;;;;;;;;;;5092052;28;20028;-67
2023/02/14 11:53:54;;;;;;;29.20;18.67;;;;;;;;;;5092092;28;20103;-68
2023/02/14 11:56:21;;;;;;;28.48;17.85;;;;;;;;;;5089734;28;20480;-68
2023/02/14 11:58:55;;;;;;;31.45;19.33;;;;;;;;;;5091791;28;20020;-67
2023/02/14 12:01:25;;;;;;;32.45;18.75;;;;;;;;;;5092555;28;20016;-67
2023/02/14 12:03:52;;;;;;;30.95;18.95;;;;;;;;;;5091921;28;20066;-67
2023/02/14 12:06:28;;;;;;;25.08;16.13;;;;;;;;;;5088241;28;20024;-67
2023/02/14 12:09:30;;;;;;;26.92;16.88;;;;;;;;;;5081844;28;20029;-67
2023/02/14 12:11:57;;;;;;;25.50;17.38;;;;;;;;;;5047986;28;20039;-67
2023/02/14 12:14:27;;;;;;;23.70;15.25;;;8.20;99.90;;;;;;5073888;28;20016;-67
2023/02/14 12:16:59;;;;;;;24.23;15.85;;;8.20;99.90;;;;;;5092683;28;20024;-66
2023/02/14 12:20:05;;;;;;;29.88;16.50;;;8.30;99.90;;;;;;5087994;28;20016;-68
2023/02/14 12:22:54;;;;;;;23.90;15.48;;;8.40;99.90;;;;;;5091684;28;20036;-67
2023/02/14 12:25:26;;;;;;;21.38;15.05;;;8.40;99.90;;;;;;5091620;28;20123;-67
2023/02/14 12:28:00;;;;;;;22.98;16.38;;;8.40;99.90;;;;;;5091778;28;20059;-66
2023/02/14 12:30:30;;;;;;;27.98;17.25;;;8.50;99.90;;;;;;5088632;28;20027;-69
2023/02/14 12:32:56;;;;;;;27.90;17.00;;;8.60;99.90;;;;;;5092099;28;20021;-67
2023/02/14 12:35:43;;;;;;;26.98;16.63;;;8.50;99.90;;;;;;5091163;28;20028;-67
2023/02/14 12:38:15;;;;;;;28.23;17.50;;;8.50;99.90;;;;;;5091911;28;20032;-67
2023/02/14 12:41:17;;;;;;;26.85;17.33;;;8.60;99.90;;;;;;5090601;28;20022;-67
2023/02/14 12:43:46;;;;;;;28.27;16.52;;;8.80;99.90;;;;;;5088249;28;20705;-67
2023/02/14 12:46:38;;;;;;;24.80;16.83;;;8.80;99.90;;;;;;5084788;28;20362;-68
2023/02/14 12:49:29;;;;;;;30.60;17.33;;;8.90;99.90;;;;;;5088186;28;20020;-68
2023/02/14 12:52:15;;;;;;;24.98;16.85;;;9.70;99.90;;;;;;5081142;28;20039;-69
2023/02/14 12:55:15;;;;;;;27.73;16.05;;;9.70;99.90;;;;;;5084390;28;20027;-68
2023/02/14 12:57:48;;;;;;;26.17;15.85;;;10.50;99.90;;;;;;5082935;28;20096;-67
2023/02/14 13:00:19;;;;;;;26.60;16.50;;;10.90;99.90;;;;;;5091024;28;20036;-69
2023/02/14 13:03:15;;;;;;;23.20;15.80;;;11.30;99.90;;;;;;5091681;28;20360;-67
2023/02/14 13:05:55;;;;;;;23.45;16.33;;;11.70;99.90;;;;;;5082020;28;20105;-68
2023/02/14 13:08:49;;;;;;;23.08;15.15;;;12.20;99.70;;;;;;5091370;28;20130;-67
2023/02/14 13:11:29;;;;;;;24.88;16.42;;;12.50;99.80;;;;;;5090704;28;20067;-67
2023/02/14 13:14:38;;;;;;;22.73;15.73;;;13.00;97.90;;;;;;5091036;28;20020;-67
2023/02/14 13:17:20;;;;;;;21.73;15.13;;;13.30;97.30;;;;;;5046153;28;20389;-67
2023/02/14 13:20:04;;;;;;;25.42;14.60;;;13.60;96.40;;;;;;5069215;28;20012;-67
2023/02/14 13:22:32;;;;;;;24.67;15.40;;;13.80;95.90;;;;;;5086021;28;20103;-67